sensor_id;sensor_type;location;lat;lon;timestamp;temperature;humidity
36186;DHT22;22228;53.222;7.446;2024-02-26T00:02:04;3.60;99.90
36186;DHT22;22228;53.222;7.446;2024-02-26T00:05:24;3.60;99.90
36186;DHT22;22228;53.222;7.446;2024-02-26T00:08:46;3.70;99.90
36186;DHT22;22228;53.222;7.446;2024-02-26T00:12:07;3.60;99.90
36186;DHT22;22228;53.222;7.446;2024-02-26T00:15:27;3.70;99.90
36186;DHT22;22228;53.222;7.446;2024-02-26T00:18:48;3.70;99.90
36186;DHT22;22228;53.222;7.446;2024-02-26T00:22:08;3.60;99.90
36186;DHT22;22228;53.222;7.446;2024-02-26T00:25:30;3.60;99.90
36186;DHT22;22228;53.222;7.446;2024-02-26T00:28:50;3.60;99.90
36186;DHT22;22228;53.222;7.446;2024-02-26T00:32:11;3.60;99.90
36186;DHT22;22228;53.222;7.446;2024-02-26T00:35:31;3.60;99.90
36186;DHT22;22228;53.222;7.446;2024-02-26T00:38:52;3.50;99.90
36186;DHT22;22228;53.222;7.446;2024-02-26T00:42:13;3.40;99.90
36186;DHT22;22228;53.222;7.446;2024-02-26T00:45:34;3.30;99.90
36186;DHT22;22228;53.222;7.446;2024-02-26T00:48:55;3.30;99.90
36186;DHT22;22228;53.222;7.446;2024-02-26T00:52:15;3.30;99.90
36186;DHT22;22228;53.222;7.446;2024-02-26T00:55:35;3.30;99.90
36186;DHT22;22228;53.222;7.446;2024-02-26T00:58:58;3.40;99.90
36186;DHT22;22228;53.222;7.446;2024-02-26T01:02:18;3.60;99.90
36186;DHT22;22228;53.222;7.446;2024-02-26T01:05:39;3.70;99.90
36186;DHT22;22228;53.222;7.446;2024-02-26T01:08:59;3.70;99.90
36186;DHT22;22228;53.222;7.446;2024-02-26T01:12:20;3.70;99.90
36186;DHT22;22228;53.222;7.446;2024-02-26T04:00:31;3.20;99.90
36186;DHT22;22228;53.222;7.446;2024-02-26T04:03:51;3.20;99.90
36186;DHT22;22228;53.222;7.446;2024-02-26T04:07:13;3.20;99.90
36186;DHT22;22228;53.222;7.446;2024-02-26T04:10:33;3.10;99.90
36186;DHT22;22228;53.222;7.446;2024-02-26T04:13:57;3.10;99.90
36186;DHT22;22228;53.222;7.446;2024-02-26T04:17:19;3.10;99.90
36186;DHT22;22228;53.222;7.446;2024-02-26T04:20:39;3.10;99.90
36186;DHT22;22228;53.222;7.446;2024-02-26T04:24:01;3.10;99.90
36186;DHT22;22228;53.222;7.446;2024-02-26T04:27:21;3.10;99.90
36186;DHT22;22228;53.222;7.446;2024-02-26T04:30:42;3.10;99.90
36186;DHT22;22228;53.222;7.446;2024-02-26T04:34:03;3.00;99.90
36186;DHT22;22228;53.222;7.446;2024-02-26T04:37:24;3.00;99.90
36186;DHT22;22228;53.222;7.446;2024-02-26T04:40:44;3.00;99.90
36186;DHT22;22228;53.222;7.446;2024-02-26T04:44:06;3.00;99.90
36186;DHT22;22228;53.222;7.446;2024-02-26T04:47:26;3.10;99.90
36186;DHT22;22228;53.222;7.446;2024-02-26T04:50:48;3.00;99.90
36186;DHT22;22228;53.222;7.446;2024-02-26T04:54:08;3.10;99.90
36186;DHT22;22228;53.222;7.446;2024-02-26T04:57:29;3.10;99.90
36186;DHT22;22228;53.222;7.446;2024-02-26T05:00:49;3.10;99.90
36186;DHT22;22228;53.222;7.446;2024-02-26T05:04:10;3.10;99.90
36186;DHT22;22228;53.222;7.446;2024-02-26T05:07:32;3.20;99.90
36186;DHT22;22228;53.222;7.446;2024-02-26T05:10:52;3.20;99.90
36186;DHT22;22228;53.222;7.446;2024-02-26T05:14:13;3.20;99.90
36186;DHT22;22228;53.222;7.446;2024-02-26T05:17:33;3.20;99.90
36186;DHT22;22228;53.222;7.446;2024-02-26T05:20:54;3.20;99.90
36186;DHT22;22228;53.222;7.446;2024-02-26T05:24:16;3.20;99.90
36186;DHT22;22228;53.222;7.446;2024-02-26T05:27:36;3.20;99.90
36186;DHT22;22228;53.222;7.446;2024-02-26T05:30:57;3.20;99.90
36186;DHT22;22228;53.222;7.446;2024-02-26T05:34:17;3.20;99.90
36186;DHT22;22228;53.222;7.446;2024-02-26T05:37:38;3.30;99.90
36186;DHT22;22228;53.222;7.446;2024-02-26T05:41:00;3.30;99.90
36186;DHT22;22228;53.222;7.446;2024-02-26T05:44:26;3.20;99.90
36186;DHT22;22228;53.222;7.446;2024-02-26T05:47:46;3.30;99.90
36186;DHT22;22228;53.222;7.446;2024-02-26T05:51:07;3.30;99.90
36186;DHT22;22228;53.222;7.446;2024-02-26T05:54:27;3.30;99.90
36186;DHT22;22228;53.222;7.446;2024-02-26T05:57:49;3.30;99.90
36186;DHT22;22228;53.222;7.446;2024-02-26T06:01:10;3.30;99.90
36186;DHT22;22228;53.222;7.446;2024-02-26T06:04:30;3.30;99.90
36186;DHT22;22228;53.222;7.446;2024-02-26T06:07:50;3.30;99.90
36186;DHT22;22228;53.222;7.446;2024-02-26T06:11:11;3.30;99.90
36186;DHT22;22228;53.222;7.446;2024-02-26T06:14:33;3.30;99.90
36186;DHT22;22228;53.222;7.446;2024-02-26T06:17:53;3.30;99.90
36186;DHT22;22228;53.222;7.446;2024-02-26T06:21:14;3.30;99.90
36186;DHT22;22228;53.222;7.446;2024-02-26T06:24:34;3.30;99.90
36186;DHT22;22228;53.222;7.446;2024-02-26T06:27:55;3.30;99.90
36186;DHT22;22228;53.222;7.446;2024-02-26T06:31:16;3.40;99.90
36186;DHT22;22228;53.222;7.446;2024-02-26T06:34:37;3.30;99.90
36186;DHT22;22228;53.222;7.446;2024-02-26T06:38:00;3.30;99.90
36186;DHT22;22228;53.222;7.446;2024-02-26T06:41:20;3.30;99.90
36186;DHT22;22228;53.222;7.446;2024-02-26T06:44:46;3.30;99.90
36186;DHT22;22228;53.222;7.446;2024-02-26T06:48:08;3.30;99.90
36186;DHT22;22228;53.222;7.446;2024-02-26T06:51:28;3.40;99.90
36186;DHT22;22228;53.222;7.446;2024-02-26T06:54:49;3.40;99.90
36186;DHT22;22228;53.222;7.446;2024-02-26T06:58:10;3.40;99.90
36186;DHT22;22228;53.222;7.446;2024-02-26T07:01:30;3.40;99.90
36186;DHT22;22228;53.222;7.446;2024-02-26T07:04:52;3.40;99.90
36186;DHT22;22228;53.222;7.446;2024-02-26T07:08:12;3.50;99.90
36186;DHT22;22228;53.222;7.446;2024-02-26T07:11:33;3.50;99.90
36186;DHT22;22228;53.222;7.446;2024-02-26T07:14:53;3.50;99.90
36186;DHT22;22228;53.222;7.446;2024-02-26T07:18:14;3.60;99.90
36186;DHT22;22228;53.222;7.446;2024-02-26T07:21:35;3.60;99.90
36186;DHT22;22228;53.222;7.446;2024-02-26T07:24:56;3.70;99.90
36186;DHT22;22228;53.222;7.446;2024-02-26T07:28:16;3.70;99.90
36186;DHT22;22228;53.222;7.446;2024-02-26T07:31:37;3.70;99.90
36186;DHT22;22228;53.222;7.446;2024-02-26T07:34:57;3.70;99.90
36186;DHT22;22228;53.222;7.446;2024-02-26T07:38:19;3.80;99.90
36186;DHT22;22228;53.222;7.446;2024-02-26T07:41:39;3.80;99.90
36186;DHT22;22228;53.222;7.446;2024-02-26T07:45:00;3.80;99.90
36186;DHT22;22228;53.222;7.446;2024-02-26T07:48:20;3.90;99.90
36186;DHT22;22228;53.222;7.446;2024-02-26T07:51:41;3.90;99.90
36186;DHT22;22228;53.222;7.446;2024-02-26T07:55:03;4.00;99.90
36186;DHT22;22228;53.222;7.446;2024-02-26T07:58:24;4.00;99.90
36186;DHT22;22228;53.222;7.446;2024-02-26T08:01:49;4.10;99.90
36186;DHT22;22228;53.222;7.446;2024-02-26T08:05:09;4.10;99.90
36186;DHT22;22228;53.222;7.446;2024-02-26T08:08:30;4.10;99.90
36186;DHT22;22228;53.222;7.446;2024-02-26T08:11:52;4.20;99.90
36186;DHT22;22228;53.222;7.446;2024-02-26T08:15:12;4.20;99.90
36186;DHT22;22228;53.222;7.446;2024-02-26T08:18:33;4.20;99.90
36186;DHT22;22228;53.222;7.446;2024-02-26T08:21:53;4.30;99.90
36186;DHT22;22228;53.222;7.446;2024-02-26T08:25:14;4.30;99.90
36186;DHT22;22228;53.222;7.446;2024-02-26T08:28:36;4.30;99.90
36186;DHT22;22228;53.222;7.446;2024-02-26T08:31:57;4.40;99.90
36186;DHT22;22228;53.222;7.446;2024-02-26T08:35:17;4.40;99.90
36186;DHT22;22228;53.222;7.446;2024-02-26T08:38:38;4.40;99.90
36186;DHT22;22228;53.222;7.446;2024-02-26T08:41:58;4.50;99.90
36186;DHT22;22228;53.222;7.446;2024-02-26T08:45:20;4.50;99.90
36186;DHT22;22228;53.222;7.446;2024-02-26T08:48:41;4.50;99.90
36186;DHT22;22228;53.222;7.446;2024-02-26T08:52:01;4.60;99.90
36186;DHT22;22228;53.222;7.446;2024-02-26T08:55:22;4.60;99.90
36186;DHT22;22228;53.222;7.446;2024-02-26T08:58:42;4.70;99.90
36186;DHT22;22228;53.222;7.446;2024-02-26T09:02:04;4.70;99.90
36186;DHT22;22228;53.222;7.446;2024-02-26T09:05:25;4.70;99.90
36186;DHT22;22228;53.222;7.446;2024-02-26T09:08:45;4.80;99.90
36186;DHT22;22228;53.222;7.446;2024-02-26T09:12:06;4.90;99.90
36186;DHT22;22228;53.222;7.446;2024-02-26T09:15:27;4.90;99.90
36186;DHT22;22228;53.222;7.446;2024-02-26T09:18:48;4.90;99.90
36186;DHT22;22228;53.222;7.446;2024-02-26T09:22:09;5.00;99.90
36186;DHT22;22228;53.222;7.446;2024-02-26T09:25:30;5.00;99.90
36186;DHT22;22228;53.222;7.446;2024-02-26T09:28:50;5.00;99.90
36186;DHT22;22228;53.222;7.446;2024-02-26T09:32:10;5.10;99.90
36186;DHT22;22228;53.222;7.446;2024-02-26T09:35:32;5.10;99.90
36186;DHT22;22228;53.222;7.446;2024-02-26T09:38:53;5.10;99.90
36186;DHT22;22228;53.222;7.446;2024-02-26T09:42:13;5.10;99.90
36186;DHT22;22228;53.222;7.446;2024-02-26T09:45:34;5.20;99.90
36186;DHT22;22228;53.222;7.446;2024-02-26T09:48:55;5.30;99.90
36186;DHT22;22228;53.222;7.446;2024-02-26T09:52:19;5.30;99.90
36186;DHT22;22228;53.222;7.446;2024-02-26T09:55:40;5.30;99.90
36186;DHT22;22228;53.222;7.446;2024-02-26T09:59:01;5.30;99.90
36186;DHT22;22228;53.222;7.446;2024-02-26T10:02:24;5.30;99.90
36186;DHT22;22228;53.222;7.446;2024-02-26T10:05:45;5.50;99.90
36186;DHT22;22228;53.222;7.446;2024-02-26T10:09:09;5.60;99.90
36186;DHT22;22228;53.222;7.446;2024-02-26T10:12:31;5.70;99.90
36186;DHT22;22228;53.222;7.446;2024-02-26T10:15:52;5.70;99.90
36186;DHT22;22228;53.222;7.446;2024-02-26T10:19:24;5.70;99.90
36186;DHT22;22228;53.222;7.446;2024-02-26T10:22:45;5.80;99.90
36186;DHT22;22228;53.222;7.446;2024-02-26T10:26:07;5.90;99.90
36186;DHT22;22228;53.222;7.446;2024-02-26T10:29:28;6.00;99.90
36186;DHT22;22228;53.222;7.446;2024-02-26T10:32:49;6.10;99.90
36186;DHT22;22228;53.222;7.446;2024-02-26T10:36:10;6.20;99.90
36186;DHT22;22228;53.222;7.446;2024-02-26T10:39:30;6.30;99.90
36186;DHT22;22228;53.222;7.446;2024-02-26T10:42:52;6.20;99.90
36186;DHT22;22228;53.222;7.446;2024-02-26T10:46:13;6.20;99.90
36186;DHT22;22228;53.222;7.446;2024-02-26T10:49:36;6.20;99.90
36186;DHT22;22228;53.222;7.446;2024-02-26T10:52:57;6.20;99.90
36186;DHT22;22228;53.222;7.446;2024-02-26T10:56:20;6.30;99.90
36186;DHT22;22228;53.222;7.446;2024-02-26T10:59:44;6.40;99.90
36186;DHT22;22228;53.222;7.446;2024-02-26T11:03:05;6.50;99.90
36186;DHT22;22228;53.222;7.446;2024-02-26T11:06:28;6.50;99.90
36186;DHT22;22228;53.222;7.446;2024-02-26T11:09:49;6.60;99.90
36186;DHT22;22228;53.222;7.446;2024-02-26T11:13:14;6.70;99.90
36186;DHT22;22228;53.222;7.446;2024-02-26T11:16:38;6.90;99.90
36186;DHT22;22228;53.222;7.446;2024-02-26T11:20:00;6.90;99.90
36186;DHT22;22228;53.222;7.446;2024-02-26T11:23:21;6.90;99.90
36186;DHT22;22228;53.222;7.446;2024-02-26T11:26:45;6.90;99.90
36186;DHT22;22228;53.222;7.446;2024-02-26T11:30:09;6.90;99.90
36186;DHT22;22228;53.222;7.446;2024-02-26T11:33:31;6.80;99.90
36186;DHT22;22228;53.222;7.446;2024-02-26T11:36:54;6.70;99.90
36186;DHT22;22228;53.222;7.446;2024-02-26T11:40:15;6.70;99.90
36186;DHT22;22228;53.222;7.446;2024-02-26T11:43:53;6.70;99.90
36186;DHT22;22228;53.222;7.446;2024-02-26T11:47:18;6.70;99.90
36186;DHT22;22228;53.222;7.446;2024-02-26T11:50:41;6.80;99.90
36186;DHT22;22228;53.222;7.446;2024-02-26T11:54:02;7.00;99.90
36186;DHT22;22228;53.222;7.446;2024-02-26T11:57:26;7.00;99.90
36186;DHT22;22228;53.222;7.446;2024-02-26T12:00:47;7.20;99.90
36186;DHT22;22228;53.222;7.446;2024-02-26T12:04:12;7.20;99.90
36186;DHT22;22228;53.222;7.446;2024-02-26T12:07:36;7.10;99.90
36186;DHT22;22228;53.222;7.446;2024-02-26T12:10:56;7.10;99.90
36186;DHT22;22228;53.222;7.446;2024-02-26T12:14:18;7.10;99.90
36186;DHT22;22228;53.222;7.446;2024-02-26T12:17:38;7.00;99.90
36186;DHT22;22228;53.222;7.446;2024-02-26T12:20:59;6.90;99.90
36186;DHT22;22228;53.222;7.446;2024-02-26T12:24:21;7.00;99.90
36186;DHT22;22228;53.222;7.446;2024-02-26T12:27:42;6.90;99.90
36186;DHT22;22228;53.222;7.446;2024-02-26T12:31:03;7.00;99.90
36186;DHT22;22228;53.222;7.446;2024-02-26T12:34:24;7.10;99.90
36186;DHT22;22228;53.222;7.446;2024-02-26T12:37:46;7.10;99.90
36186;DHT22;22228;53.222;7.446;2024-02-26T12:41:08;7.10;99.90
36186;DHT22;22228;53.222;7.446;2024-02-26T12:44:28;7.20;99.90
36186;DHT22;22228;53.222;7.446;2024-02-26T12:47:49;7.20;99.90
36186;DHT22;22228;53.222;7.446;2024-02-26T12:51:09;7.10;99.90
36186;DHT22;22228;53.222;7.446;2024-02-26T12:54:31;7.00;99.90
36186;DHT22;22228;53.222;7.446;2024-02-26T12:57:53;6.80;99.90
36186;DHT22;22228;53.222;7.446;2024-02-26T13:01:16;6.80;99.90
36186;DHT22;22228;53.222;7.446;2024-02-26T13:04:38;6.90;99.90
36186;DHT22;22228;53.222;7.446;2024-02-26T13:07:59;6.80;99.90
36186;DHT22;22228;53.222;7.446;2024-02-26T13:11:19;6.70;99.90
36186;DHT22;22228;53.222;7.446;2024-02-26T13:14:41;6.50;99.90
36186;DHT22;22228;53.222;7.446;2024-02-26T13:18:09;6.50;99.90
36186;DHT22;22228;53.222;7.446;2024-02-26T13:21:30;6.40;99.90
36186;DHT22;22228;53.222;7.446;2024-02-26T13:24:55;6.50;99.90
36186;DHT22;22228;53.222;7.446;2024-02-26T13:28:17;6.50;99.90
36186;DHT22;22228;53.222;7.446;2024-02-26T13:31:40;6.50;99.90
36186;DHT22;22228;53.222;7.446;2024-02-26T13:35:07;6.40;99.90
36186;DHT22;22228;53.222;7.446;2024-02-26T13:38:28;6.30;99.90
36186;DHT22;22228;53.222;7.446;2024-02-26T13:41:49;6.40;99.90
36186;DHT22;22228;53.222;7.446;2024-02-26T13:45:09;6.30;99.90
36186;DHT22;22228;53.222;7.446;2024-02-26T13:48:31;6.30;99.90
36186;DHT22;22228;53.222;7.446;2024-02-26T13:51:52;6.30;99.90
36186;DHT22;22228;53.222;7.446;2024-02-26T13:55:13;6.10;99.90
36186;DHT22;22228;53.222;7.446;2024-02-26T13:58:33;6.10;99.90
36186;DHT22;22228;53.222;7.446;2024-02-26T14:01:54;6.00;99.90
36186;DHT22;22228;53.222;7.446;2024-02-26T14:05:16;6.00;99.90
36186;DHT22;22228;53.222;7.446;2024-02-26T14:08:37;6.00;99.90
36186;DHT22;22228;53.222;7.446;2024-02-26T14:11:57;6.00;99.90
36186;DHT22;22228;53.222;7.446;2024-02-26T14:15:17;6.00;99.90
36186;DHT22;22228;53.222;7.446;2024-02-26T14:18:38;5.90;99.90
36186;DHT22;22228;53.222;7.446;2024-02-26T14:21:59;5.90;99.90
36186;DHT22;22228;53.222;7.446;2024-02-26T14:25:20;5.80;99.90
36186;DHT22;22228;53.222;7.446;2024-02-26T14:28:41;5.80;99.90
36186;DHT22;22228;53.222;7.446;2024-02-26T14:32:01;5.80;99.90
36186;DHT22;22228;53.222;7.446;2024-02-26T14:35:23;5.80;99.90
36186;DHT22;22228;53.222;7.446;2024-02-26T14:38:45;5.80;99.90
36186;DHT22;22228;53.222;7.446;2024-02-26T14:42:06;5.80;99.90
36186;DHT22;22228;53.222;7.446;2024-02-26T14:45:26;5.80;99.90
36186;DHT22;22228;53.222;7.446;2024-02-26T14:48:47;5.90;99.90
36186;DHT22;22228;53.222;7.446;2024-02-26T14:52:07;5.90;99.90
36186;DHT22;22228;53.222;7.446;2024-02-26T14:55:29;5.90;99.90
36186;DHT22;22228;53.222;7.446;2024-02-26T14:58:50;5.90;99.90
36186;DHT22;22228;53.222;7.446;2024-02-26T15:02:10;5.90;99.90
36186;DHT22;22228;53.222;7.446;2024-02-26T15:05:31;5.90;99.90
36186;DHT22;22228;53.222;7.446;2024-02-26T15:08:51;5.80;99.90
36186;DHT22;22228;53.222;7.446;2024-02-26T15:12:13;5.80;99.90
36186;DHT22;22228;53.222;7.446;2024-02-26T15:15:35;5.80;99.90
36186;DHT22;22228;53.222;7.446;2024-02-26T15:18:56;5.70;99.90
36186;DHT22;22228;53.222;7.446;2024-02-26T15:22:16;5.70;99.90
36186;DHT22;22228;53.222;7.446;2024-02-26T15:25:37;5.70;99.90
36186;DHT22;22228;53.222;7.446;2024-02-26T15:28:59;5.70;99.90
36186;DHT22;22228;53.222;7.446;2024-02-26T15:32:19;5.70;99.90
36186;DHT22;22228;53.222;7.446;2024-02-26T15:35:40;5.60;99.90
36186;DHT22;22228;53.222;7.446;2024-02-26T15:39:01;5.60;99.90
36186;DHT22;22228;53.222;7.446;2024-02-26T15:42:22;5.60;99.90
36186;DHT22;22228;53.222;7.446;2024-02-26T15:45:45;5.60;99.90
36186;DHT22;22228;53.222;7.446;2024-02-26T15:49:05;5.60;99.90
36186;DHT22;22228;53.222;7.446;2024-02-26T15:52:26;5.60;99.90
36186;DHT22;22228;53.222;7.446;2024-02-26T15:55:46;5.60;99.90
36186;DHT22;22228;53.222;7.446;2024-02-26T15:59:07;5.50;99.90
36186;DHT22;22228;53.222;7.446;2024-02-26T16:02:29;5.50;99.90
36186;DHT22;22228;53.222;7.446;2024-02-26T16:05:49;5.40;99.90
36186;DHT22;22228;53.222;7.446;2024-02-26T16:09:10;5.40;99.90
36186;DHT22;22228;53.222;7.446;2024-02-26T16:12:35;5.40;99.90
36186;DHT22;22228;53.222;7.446;2024-02-26T16:16:01;5.30;99.90
36186;DHT22;22228;53.222;7.446;2024-02-26T16:19:25;5.30;99.90
36186;DHT22;22228;53.222;7.446;2024-02-26T16:22:47;5.20;99.90
36186;DHT22;22228;53.222;7.446;2024-02-26T16:26:07;5.20;99.90
36186;DHT22;22228;53.222;7.446;2024-02-26T16:29:28;5.10;99.90
36186;DHT22;22228;53.222;7.446;2024-02-26T16:32:48;5.00;99.90
36186;DHT22;22228;53.222;7.446;2024-02-26T16:36:10;5.00;99.90
36186;DHT22;22228;53.222;7.446;2024-02-26T16:39:35;4.90;99.90
36186;DHT22;22228;53.222;7.446;2024-02-26T16:42:56;4.90;99.90
36186;DHT22;22228;53.222;7.446;2024-02-26T16:46:16;4.90;99.90
36186;DHT22;22228;53.222;7.446;2024-02-26T16:49:37;4.80;99.90
36186;DHT22;22228;53.222;7.446;2024-02-26T16:52:59;4.70;99.90
36186;DHT22;22228;53.222;7.446;2024-02-26T16:56:20;4.70;99.90
36186;DHT22;22228;53.222;7.446;2024-02-26T16:59:40;4.60;99.90
36186;DHT22;22228;53.222;7.446;2024-02-26T17:03:01;4.60;99.90
36186;DHT22;22228;53.222;7.446;2024-02-26T17:06:22;4.50;99.90
36186;DHT22;22228;53.222;7.446;2024-02-26T17:09:43;4.50;99.90
36186;DHT22;22228;53.222;7.446;2024-02-26T17:13:04;4.50;99.90
36186;DHT22;22228;53.222;7.446;2024-02-26T17:16:25;4.40;99.90
36186;DHT22;22228;53.222;7.446;2024-02-26T17:19:45;4.40;99.90
36186;DHT22;22228;53.222;7.446;2024-02-26T17:23:06;4.30;99.90
36186;DHT22;22228;53.222;7.446;2024-02-26T17:26:27;4.30;99.90
36186;DHT22;22228;53.222;7.446;2024-02-26T17:29:48;4.30;99.90
36186;DHT22;22228;53.222;7.446;2024-02-26T17:33:08;4.30;99.90
36186;DHT22;22228;53.222;7.446;2024-02-26T17:36:29;4.20;99.90
36186;DHT22;22228;53.222;7.446;2024-02-26T17:39:50;4.20;99.90
36186;DHT22;22228;53.222;7.446;2024-02-26T17:43:16;4.20;99.90
36186;DHT22;22228;53.222;7.446;2024-02-26T17:46:36;4.20;99.90
36186;DHT22;22228;53.222;7.446;2024-02-26T17:49:57;4.20;99.90
36186;DHT22;22228;53.222;7.446;2024-02-26T17:53:17;4.10;99.90
36186;DHT22;22228;53.222;7.446;2024-02-26T17:56:38;4.00;99.90
36186;DHT22;22228;53.222;7.446;2024-02-26T18:00:00;4.10;99.90
36186;DHT22;22228;53.222;7.446;2024-02-26T18:03:25;4.10;99.90
36186;DHT22;22228;53.222;7.446;2024-02-26T18:06:45;4.00;99.90
36186;DHT22;22228;53.222;7.446;2024-02-26T18:10:07;3.90;99.90
36186;DHT22;22228;53.222;7.446;2024-02-26T18:13:28;3.90;99.90
36186;DHT22;22228;53.222;7.446;2024-02-26T18:16:50;3.90;99.90
36186;DHT22;22228;53.222;7.446;2024-02-26T18:20:11;3.80;99.90
36186;DHT22;22228;53.222;7.446;2024-02-26T18:23:31;3.90;99.90
36186;DHT22;22228;53.222;7.446;2024-02-26T18:26:51;3.90;99.90
36186;DHT22;22228;53.222;7.446;2024-02-26T18:30:13;3.80;99.90
36186;DHT22;22228;53.222;7.446;2024-02-26T18:33:35;3.70;99.90
36186;DHT22;22228;53.222;7.446;2024-02-26T18:36:55;3.70;99.90
36186;DHT22;22228;53.222;7.446;2024-02-26T18:40:16;3.70;99.90
36186;DHT22;22228;53.222;7.446;2024-02-26T18:43:37;3.70;99.90
36186;DHT22;22228;53.222;7.446;2024-02-26T18:46:57;3.70;99.90
36186;DHT22;22228;53.222;7.446;2024-02-26T18:50:19;3.70;99.90
36186;DHT22;22228;53.222;7.446;2024-02-26T18:53:40;3.60;99.90
36186;DHT22;22228;53.222;7.446;2024-02-26T18:57:00;3.60;99.90
36186;DHT22;22228;53.222;7.446;2024-02-26T19:00:21;3.50;99.90
36186;DHT22;22228;53.222;7.446;2024-02-26T19:03:41;3.50;99.90
36186;DHT22;22228;53.222;7.446;2024-02-26T19:07:04;3.50;99.90
36186;DHT22;22228;53.222;7.446;2024-02-26T19:10:24;3.50;99.90
36186;DHT22;22228;53.222;7.446;2024-02-26T19:13:45;3.40;99.90
36186;DHT22;22228;53.222;7.446;2024-02-26T19:17:05;3.40;99.90
36186;DHT22;22228;53.222;7.446;2024-02-26T19:20:27;3.40;99.90
36186;DHT22;22228;53.222;7.446;2024-02-26T19:23:49;3.40;99.90
36186;DHT22;22228;53.222;7.446;2024-02-26T19:27:09;3.30;99.90
36186;DHT22;22228;53.222;7.446;2024-02-26T19:30:30;3.30;99.90
36186;DHT22;22228;53.222;7.446;2024-02-26T19:33:50;3.30;99.90
36186;DHT22;22228;53.222;7.446;2024-02-26T19:37:11;3.30;99.90
36186;DHT22;22228;53.222;7.446;2024-02-26T19:40:32;3.20;99.90
36186;DHT22;22228;53.222;7.446;2024-02-26T19:43:53;3.20;99.90
36186;DHT22;22228;53.222;7.446;2024-02-26T19:47:14;3.20;99.90
36186;DHT22;22228;53.222;7.446;2024-02-26T19:50:34;3.20;99.90
36186;DHT22;22228;53.222;7.446;2024-02-26T19:53:55;3.20;99.90
36186;DHT22;22228;53.222;7.446;2024-02-26T19:57:17;3.20;99.90
36186;DHT22;22228;53.222;7.446;2024-02-26T20:00:37;3.20;99.90
36186;DHT22;22228;53.222;7.446;2024-02-26T20:03:58;3.10;99.90
36186;DHT22;22228;53.222;7.446;2024-02-26T20:07:18;3.10;99.90
36186;DHT22;22228;53.222;7.446;2024-02-26T20:10:39;3.10;99.90
36186;DHT22;22228;53.222;7.446;2024-02-26T20:14:01;3.10;99.90
36186;DHT22;22228;53.222;7.446;2024-02-26T20:17:22;3.20;99.90
36186;DHT22;22228;53.222;7.446;2024-02-26T20:20:43;3.20;99.90
36186;DHT22;22228;53.222;7.446;2024-02-26T20:24:04;3.20;99.90
36186;DHT22;22228;53.222;7.446;2024-02-26T20:27:24;3.20;99.90
36186;DHT22;22228;53.222;7.446;2024-02-26T20:30:46;3.20;99.90
36186;DHT22;22228;53.222;7.446;2024-02-26T20:34:07;3.20;99.90
36186;DHT22;22228;53.222;7.446;2024-02-26T20:37:28;3.10;99.90
36186;DHT22;22228;53.222;7.446;2024-02-26T20:40:49;3.10;99.90
36186;DHT22;22228;53.222;7.446;2024-02-26T20:44:09;3.10;99.90
36186;DHT22;22228;53.222;7.446;2024-02-26T20:47:31;3.10;99.90
36186;DHT22;22228;53.222;7.446;2024-02-26T20:50:51;3.10;99.90
36186;DHT22;22228;53.222;7.446;2024-02-26T20:54:12;3.10;99.90
36186;DHT22;22228;53.222;7.446;2024-02-26T20:57:32;3.10;99.90
36186;DHT22;22228;53.222;7.446;2024-02-26T21:00:53;3.10;99.90
36186;DHT22;22228;53.222;7.446;2024-02-26T21:04:17;3.10;99.90
36186;DHT22;22228;53.222;7.446;2024-02-26T21:07:37;3.10;99.90
36186;DHT22;22228;53.222;7.446;2024-02-26T21:10:58;3.00;99.90
36186;DHT22;22228;53.222;7.446;2024-02-26T21:14:18;2.90;99.90
36186;DHT22;22228;53.222;7.446;2024-02-26T21:17:38;2.90;99.90
36186;DHT22;22228;53.222;7.446;2024-02-26T21:21:00;2.80;99.90
36186;DHT22;22228;53.222;7.446;2024-02-26T21:24:21;2.70;99.90
36186;DHT22;22228;53.222;7.446;2024-02-26T21:27:43;2.70;99.90
36186;DHT22;22228;53.222;7.446;2024-02-26T21:31:03;2.70;99.90
36186;DHT22;22228;53.222;7.446;2024-02-26T21:34:24;2.70;99.90
36186;DHT22;22228;53.222;7.446;2024-02-26T21:37:46;2.80;99.90
36186;DHT22;22228;53.222;7.446;2024-02-26T21:41:06;2.70;99.90
36186;DHT22;22228;53.222;7.446;2024-02-26T21:44:27;2.60;99.90
36186;DHT22;22228;53.222;7.446;2024-02-26T21:47:48;2.60;99.90
36186;DHT22;22228;53.222;7.446;2024-02-26T21:51:08;2.50;99.90
36186;DHT22;22228;53.222;7.446;2024-02-26T21:54:32;2.50;99.90
36186;DHT22;22228;53.222;7.446;2024-02-26T21:57:52;2.40;99.90
36186;DHT22;22228;53.222;7.446;2024-02-26T22:01:13;2.30;99.90
36186;DHT22;22228;53.222;7.446;2024-02-26T22:04:33;2.30;99.90
36186;DHT22;22228;53.222;7.446;2024-02-26T22:07:54;2.20;99.90
36186;DHT22;22228;53.222;7.446;2024-02-26T22:11:16;2.20;99.90
36186;DHT22;22228;53.222;7.446;2024-02-26T22:14:36;2.20;99.90
36186;DHT22;22228;53.222;7.446;2024-02-26T22:17:57;2.10;99.90
36186;DHT22;22228;53.222;7.446;2024-02-26T22:21:19;2.10;99.90
36186;DHT22;22228;53.222;7.446;2024-02-26T22:24:40;2.10;99.90
36186;DHT22;22228;53.222;7.446;2024-02-26T22:28:02;2.00;99.90
36186;DHT22;22228;53.222;7.446;2024-02-26T22:31:22;2.00;99.90
36186;DHT22;22228;53.222;7.446;2024-02-26T22:34:44;2.00;99.90
36186;DHT22;22228;53.222;7.446;2024-02-26T22:38:05;2.00;99.90
36186;DHT22;22228;53.222;7.446;2024-02-26T22:41:25;2.00;99.90
36186;DHT22;22228;53.222;7.446;2024-02-26T22:44:47;2.00;99.90
36186;DHT22;22228;53.222;7.446;2024-02-26T22:48:07;2.00;99.90
36186;DHT22;22228;53.222;7.446;2024-02-26T22:51:28;2.00;99.90
36186;DHT22;22228;53.222;7.446;2024-02-26T22:54:48;1.90;99.90
36186;DHT22;22228;53.222;7.446;2024-02-26T22:58:09;1.90;99.90
36186;DHT22;22228;53.222;7.446;2024-02-26T23:01:31;2.00;99.90
36186;DHT22;22228;53.222;7.446;2024-02-26T23:04:51;1.90;99.90
36186;DHT22;22228;53.222;7.446;2024-02-26T23:08:12;1.90;99.90
36186;DHT22;22228;53.222;7.446;2024-02-26T23:11:33;1.90;99.90
36186;DHT22;22228;53.222;7.446;2024-02-26T23:14:53;1.80;99.90
36186;DHT22;22228;53.222;7.446;2024-02-26T23:18:15;1.80;99.90
36186;DHT22;22228;53.222;7.446;2024-02-26T23:21:35;1.80;99.90
36186;DHT22;22228;53.222;7.446;2024-02-26T23:24:56;1.60;99.90
36186;DHT22;22228;53.222;7.446;2024-02-26T23:28:16;1.60;99.90
36186;DHT22;22228;53.222;7.446;2024-02-26T23:31:37;1.70;99.90
36186;DHT22;22228;53.222;7.446;2024-02-26T23:34:59;1.70;99.90
36186;DHT22;22228;53.222;7.446;2024-02-26T23:38:19;1.60;99.90
36186;DHT22;22228;53.222;7.446;2024-02-26T23:41:39;1.50;99.90
36186;DHT22;22228;53.222;7.446;2024-02-26T23:45:02;1.40;99.90
36186;DHT22;22228;53.222;7.446;2024-02-26T23:48:22;1.40;99.90
36186;DHT22;22228;53.222;7.446;2024-02-26T23:51:44;1.30;99.90
36186;DHT22;22228;53.222;7.446;2024-02-26T23:55:06;1.20;99.90
36186;DHT22;22228;53.222;7.446;2024-02-26T23:58:27;1.30;99.90
